Ferdinand, Indiana
Current Conditions -  °F | °C
As of 7:55 AM on Monday 20 Oct 2014 (Local Time) from KHNB Reporting Station
Broken Clouds Broken Clouds  
Wind Chill:   Ceiling: 11000
Heat Index:   Visibility: 8mi
Dew Point:   Wind: 9mph
Humidity: 87%   Direction: 210°SSW
Pressure: 30.02"   Gusts: NA
Location:  38.22°N, 86.86°W
Report Text: KHNB 201255Z AUTO 21008KT 8SM FEW048 FEW085 BKN110 09/07 A3002 RMK AO1
Loading
Personal Weather Stations






























Interactive Weather Map
Tropical Storm Tracking
New forecast layout! Learn more

10-Day Weather Forecast

Advertisements
Track Severe Weather on mobile